»·PEaware :: GSA1337 KLAS-KIFP

GSA1337 :: KLAS-KIFP

FLIGHT INFORMATION

Flight Status: Arrived
Operator:
Global Sim Alliance
More flights by this operator :: More flights under this callsign
Pilot: Brandon G. (13)
Aircraft: BOEING 737-800
(B738)
More flights by this aircraft type
Origin: KLAS McCarran Intl
United States
Destination: KIFP Laughlin/Bullhead Intl
United States
More flights between these airports :: More routes between these airports
Route: BOACH8 BOACH EED
File this flight plan on PilotEdge
Remarks:
Altitude:
(Current/Filed)
19,000ft
Speed:
(Current/Filed)
425kts
Departed: 30-Dec-17 11:59 PM
Arrived: 31-Dec-17 12:18 AM
Distance/Time
Traveled:
63nm/0:19
Distance/Time
To Go:
Arrived

Flight Plot

Page will automatically refresh every two minutes.

Flight plan parsing failed; only flown route is shown


Map Options




Map Legend


Flown Route
Filed Route
Departure Airport
Arrival Airport
Navaid (VOR, NDB)
Fix

Horizontal Profiles

Position Reports

Time Latitude Longitude Heading Altitude Ground
Speed
30-Dec-17 23:41 36.083101 -115.153372 129 2112ft 0kts
30-Dec-17 23:42 36.083101 -115.153372 129 2112ft 0kts
30-Dec-17 23:43 36.083101 -115.153372 129 2112ft 0kts
30-Dec-17 23:44 36.083101 -115.153372 129 2112ft 0kts
30-Dec-17 23:45 36.083101 -115.153372 129 2112ft 0kts
30-Dec-17 23:46 36.083101 -115.153372 129 2112ft 0kts
30-Dec-17 23:47 36.083101 -115.153372 129 2112ft 0kts
30-Dec-17 23:48 36.083101 -115.153372 129 2112ft 0kts
30-Dec-17 23:49 36.083101 -115.153372 129 2112ft 0kts
30-Dec-17 23:50 36.083101 -115.153372 129 2112ft 0kts
30-Dec-17 23:51 36.083101 -115.153372 129 2112ft 0kts
30-Dec-17 23:52 36.083101 -115.153372 129 2112ft 0kts
30-Dec-17 23:53 36.083111 -115.153387 139 2112ft 1kts
30-Dec-17 23:54 36.083069 -115.154048 41 2114ft 2kts
30-Dec-17 23:55 36.082752 -115.154184 5 2116ft 0kts
30-Dec-17 23:56 36.082752 -115.154184 5 2116ft 0kts
30-Dec-17 23:57 36.082778 -115.154184 357 2116ft 1kts
30-Dec-17 23:58 36.083615 -115.156139 331 2121ft 9kts
30-Dec-17 23:59 36.088203 -115.157162 27 2113ft 17kts
31-Dec-17 00:00 36.092353 -115.154888 25 2096ft 17kts
31-Dec-17 00:01 36.097127 -115.152174 17 2078ft 17kts
31-Dec-17 00:02 36.097737 -115.152166 337 2077ft 0kts
31-Dec-17 00:03 36.097886 -115.152316 304 2077ft 0kts
31-Dec-17 00:04 36.098103 -115.153292 266 2078ft 12kts
31-Dec-17 00:05 36.091335 -115.157653 204 2109ft 119kts
31-Dec-17 00:06 36.048593 -115.184172 203 4533ft 212kts
31-Dec-17 00:07 35.997639 -115.238746 242 6926ft 272kts
31-Dec-17 00:08 35.946127 -115.300727 188 9459ft 281kts
31-Dec-17 00:09 35.863955 -115.313773 186 12782ft 324kts
31-Dec-17 00:10 35.772554 -115.305643 175 16559ft 343kts
31-Dec-17 00:11 35.675991 -115.289716 158 19077ft 368kts
31-Dec-17 00:12 35.587293 -115.212929 144 19087ft 400kts
31-Dec-17 00:13 35.500299 -115.134424 144 19087ft 399kts
31-Dec-17 00:14 35.412946 -115.054958 138 19065ft 384kts
31-Dec-17 00:15 35.386376 -114.943463 73 17058ft 350kts
31-Dec-17 00:16 35.420936 -114.833940 68 14578ft 340kts
31-Dec-17 00:17 35.454656 -114.729149 68 12075ft 326kts
31-Dec-17 00:18 35.425148 -114.645221 156 9583ft 289kts
31-Dec-17 00:19 35.358961 -114.599714 145 7105ft 260kts
31-Dec-17 00:20 35.303630 -114.568469 172 5741ft 200kts
31-Dec-17 00:21 35.253767 -114.570886 177 4007ft 167kts
31-Dec-17 00:22 35.210730 -114.564225 178 2194ft 150kts
31-Dec-17 00:23 35.171377 -114.560562 176 802ft 141kts
31-Dec-17 00:24 35.155927 -114.558183 88 676ft 7kts
31-Dec-17 00:25 35.297495 -114.567658 175 5580ft 195kts
31-Dec-17 00:26 35.250973 -114.570421 167 3865ft 168kts
31-Dec-17 00:27 35.208186 -114.564066 179 2086ft 149kts
31-Dec-17 00:28 35.168844 -114.560387 176 743ft 140kts
31-Dec-17 00:29 35.155977 -114.556783 87 688ft 0kts
31-Dec-17 00:30 35.156365 -114.556045 358 692ft 0kts
31-Dec-17 00:31 35.156365 -114.556045 358 692ft 0kts
31-Dec-17 00:32 35.156365 -114.556045 358 692ft 0kts
31-Dec-17 00:33 35.156365 -114.556045 358 692ft 0kts
31-Dec-17 00:34 35.156365 -114.556045 358 692ft 0kts
31-Dec-17 00:35 35.156365 -114.556045 358 692ft 0kts
31-Dec-17 00:36 35.156365 -114.556045 358 692ft 0kts
31-Dec-17 00:37 35.156365 -114.556045 358 692ft 0kts
31-Dec-17 00:38 35.156365 -114.556045 358 692ft 0kts

Navigation Log

Ident Type
Flight plan parsing failed, navigation log unavailable